sensor_id;sensor_type;location;lat;lon;timestamp;temperature;humidity
33328;DHT22;19692;52.998;9.116;2024-03-22T00:00:07;9.30;99.90
33328;DHT22;19692;52.998;9.116;2024-03-22T00:02:37;9.30;99.90
33328;DHT22;19692;52.998;9.116;2024-03-22T00:05:03;9.30;99.90
33328;DHT22;19692;52.998;9.116;2024-03-22T00:07:28;9.30;99.90
33328;DHT22;19692;52.998;9.116;2024-03-22T00:09:54;9.30;99.90
33328;DHT22;19692;52.998;9.116;2024-03-22T00:12:19;9.30;99.90
33328;DHT22;19692;52.998;9.116;2024-03-22T00:14:45;9.20;99.90
33328;DHT22;19692;52.998;9.116;2024-03-22T00:17:10;9.20;99.90
33328;DHT22;19692;52.998;9.116;2024-03-22T00:19:36;9.30;99.90
33328;DHT22;19692;52.998;9.116;2024-03-22T00:22:01;9.40;99.90
33328;DHT22;19692;52.998;9.116;2024-03-22T00:24:27;9.40;99.90
33328;DHT22;19692;52.998;9.116;2024-03-22T00:26:52;9.40;99.90
33328;DHT22;19692;52.998;9.116;2024-03-22T00:29:18;9.40;99.90
33328;DHT22;19692;52.998;9.116;2024-03-22T00:31:43;9.40;99.90
33328;DHT22;19692;52.998;9.116;2024-03-22T00:34:09;9.40;99.90
33328;DHT22;19692;52.998;9.116;2024-03-22T00:36:34;9.40;99.90
33328;DHT22;19692;52.998;9.116;2024-03-22T00:39:00;9.40;99.90
33328;DHT22;19692;52.998;9.116;2024-03-22T00:41:25;9.50;99.90
33328;DHT22;19692;52.998;9.116;2024-03-22T00:43:51;9.40;99.90
33328;DHT22;19692;52.998;9.116;2024-03-22T00:46:16;9.40;99.90
33328;DHT22;19692;52.998;9.116;2024-03-22T00:48:42;9.40;99.90
33328;DHT22;19692;52.998;9.116;2024-03-22T00:51:07;9.40;99.90
33328;DHT22;19692;52.998;9.116;2024-03-22T00:53:33;9.50;99.90
33328;DHT22;19692;52.998;9.116;2024-03-22T00:55:58;9.50;99.90
33328;DHT22;19692;52.998;9.116;2024-03-22T00:58:28;9.40;99.90
33328;DHT22;19692;52.998;9.116;2024-03-22T01:00:54;9.40;99.90
33328;DHT22;19692;52.998;9.116;2024-03-22T01:03:20;9.50;99.90
33328;DHT22;19692;52.998;9.116;2024-03-22T01:05:46;9.40;99.90
33328;DHT22;19692;52.998;9.116;2024-03-22T01:08:12;9.50;99.90
33328;DHT22;19692;52.998;9.116;2024-03-22T01:10:37;9.50;99.90
33328;DHT22;19692;52.998;9.116;2024-03-22T01:13:03;9.60;99.90
33328;DHT22;19692;52.998;9.116;2024-03-22T01:15:28;9.50;99.90
33328;DHT22;19692;52.998;9.116;2024-03-22T01:17:54;9.50;99.90
33328;DHT22;19692;52.998;9.116;2024-03-22T01:20:19;9.60;99.90
33328;DHT22;19692;52.998;9.116;2024-03-22T01:22:45;9.50;99.90
33328;DHT22;19692;52.998;9.116;2024-03-22T01:25:11;9.60;99.90
33328;DHT22;19692;52.998;9.116;2024-03-22T01:27:36;9.50;99.90
33328;DHT22;19692;52.998;9.116;2024-03-22T01:30:02;9.50;99.90
33328;DHT22;19692;52.998;9.116;2024-03-22T01:32:28;9.60;99.90
33328;DHT22;19692;52.998;9.116;2024-03-22T01:34:53;9.60;99.90
33328;DHT22;19692;52.998;9.116;2024-03-22T01:37:19;9.60;99.90
33328;DHT22;19692;52.998;9.116;2024-03-22T01:39:44;9.60;99.90
33328;DHT22;19692;52.998;9.116;2024-03-22T01:42:10;9.60;99.90
33328;DHT22;19692;52.998;9.116;2024-03-22T01:44:35;9.60;99.90
33328;DHT22;19692;52.998;9.116;2024-03-22T01:47:01;9.60;99.90
33328;DHT22;19692;52.998;9.116;2024-03-22T01:49:27;9.70;99.90
33328;DHT22;19692;52.998;9.116;2024-03-22T01:51:53;9.70;99.90
33328;DHT22;19692;52.998;9.116;2024-03-22T01:54:20;9.70;99.90
33328;DHT22;19692;52.998;9.116;2024-03-22T01:56:46;9.70;99.90
33328;DHT22;19692;52.998;9.116;2024-03-22T01:59:12;9.70;99.90
33328;DHT22;19692;52.998;9.116;2024-03-22T02:01:38;9.70;99.90
33328;DHT22;19692;52.998;9.116;2024-03-22T02:04:04;9.70;99.90
33328;DHT22;19692;52.998;9.116;2024-03-22T02:06:30;9.70;99.90
33328;DHT22;19692;52.998;9.116;2024-03-22T02:08:56;9.70;99.90
33328;DHT22;19692;52.998;9.116;2024-03-22T02:11:23;9.60;99.90
33328;DHT22;19692;52.998;9.116;2024-03-22T02:13:49;9.70;99.90
33328;DHT22;19692;52.998;9.116;2024-03-22T02:16:14;9.70;99.90
33328;DHT22;19692;52.998;9.116;2024-03-22T02:18:40;9.60;99.90
33328;DHT22;19692;52.998;9.116;2024-03-22T02:21:06;9.60;99.90
33328;DHT22;19692;52.998;9.116;2024-03-22T02:23:39;9.60;99.90
33328;DHT22;19692;52.998;9.116;2024-03-22T02:26:05;9.60;99.90
33328;DHT22;19692;52.998;9.116;2024-03-22T02:28:31;9.60;99.90
33328;DHT22;19692;52.998;9.116;2024-03-22T02:31:01;9.60;99.90
33328;DHT22;19692;52.998;9.116;2024-03-22T02:33:27;9.60;99.90
33328;DHT22;19692;52.998;9.116;2024-03-22T02:35:52;9.70;99.90
33328;DHT22;19692;52.998;9.116;2024-03-22T02:38:18;9.70;99.90
33328;DHT22;19692;52.998;9.116;2024-03-22T02:40:45;9.70;99.90
33328;DHT22;19692;52.998;9.116;2024-03-22T02:43:11;9.70;99.90
33328;DHT22;19692;52.998;9.116;2024-03-22T02:45:37;9.70;99.90
33328;DHT22;19692;52.998;9.116;2024-03-22T02:48:02;9.70;99.90
33328;DHT22;19692;52.998;9.116;2024-03-22T02:50:32;9.60;99.90
33328;DHT22;19692;52.998;9.116;2024-03-22T02:52:57;9.70;99.90
33328;DHT22;19692;52.998;9.116;2024-03-22T02:55:23;9.70;99.90
33328;DHT22;19692;52.998;9.116;2024-03-22T02:57:49;9.60;99.90
33328;DHT22;19692;52.998;9.116;2024-03-22T03:00:15;9.70;99.90
33328;DHT22;19692;52.998;9.116;2024-03-22T03:02:41;9.70;99.90
33328;DHT22;19692;52.998;9.116;2024-03-22T03:05:06;9.70;99.90
33328;DHT22;19692;52.998;9.116;2024-03-22T03:07:32;9.70;99.90
33328;DHT22;19692;52.998;9.116;2024-03-22T03:09:57;9.70;99.90
33328;DHT22;19692;52.998;9.116;2024-03-22T03:12:23;9.70;99.90
33328;DHT22;19692;52.998;9.116;2024-03-22T03:14:48;9.70;99.90
33328;DHT22;19692;52.998;9.116;2024-03-22T03:17:14;9.70;99.90
33328;DHT22;19692;52.998;9.116;2024-03-22T03:19:39;9.70;99.90
33328;DHT22;19692;52.998;9.116;2024-03-22T03:22:05;9.70;99.90
33328;DHT22;19692;52.998;9.116;2024-03-22T03:24:31;9.70;99.90
33328;DHT22;19692;52.998;9.116;2024-03-22T03:26:56;9.70;99.90
33328;DHT22;19692;52.998;9.116;2024-03-22T03:29:22;9.70;99.90
33328;DHT22;19692;52.998;9.116;2024-03-22T03:31:47;9.70;99.90
33328;DHT22;19692;52.998;9.116;2024-03-22T03:34:14;9.80;99.90
33328;DHT22;19692;52.998;9.116;2024-03-22T03:36:39;9.70;99.90
33328;DHT22;19692;52.998;9.116;2024-03-22T03:39:05;9.70;99.90
33328;DHT22;19692;52.998;9.116;2024-03-22T03:41:30;9.80;99.90
33328;DHT22;19692;52.998;9.116;2024-03-22T03:43:56;9.80;99.90
33328;DHT22;19692;52.998;9.116;2024-03-22T03:46:21;9.80;99.90
33328;DHT22;19692;52.998;9.116;2024-03-22T03:48:47;9.80;99.90
33328;DHT22;19692;52.998;9.116;2024-03-22T03:51:12;9.90;99.90
33328;DHT22;19692;52.998;9.116;2024-03-22T03:53:38;9.80;99.90
33328;DHT22;19692;52.998;9.116;2024-03-22T03:56:04;9.80;99.90
33328;DHT22;19692;52.998;9.116;2024-03-22T03:58:29;9.90;99.90
33328;DHT22;19692;52.998;9.116;2024-03-22T04:00:55;9.90;99.90
33328;DHT22;19692;52.998;9.116;2024-03-22T04:03:20;9.90;99.90
33328;DHT22;19692;52.998;9.116;2024-03-22T04:05:46;9.90;99.90
33328;DHT22;19692;52.998;9.116;2024-03-22T04:08:11;9.90;99.90
33328;DHT22;19692;52.998;9.116;2024-03-22T04:10:37;9.90;99.90
33328;DHT22;19692;52.998;9.116;2024-03-22T04:13:02;9.90;99.90
33328;DHT22;19692;52.998;9.116;2024-03-22T04:15:28;10.00;99.90
33328;DHT22;19692;52.998;9.116;2024-03-22T04:17:56;10.00;99.90
33328;DHT22;19692;52.998;9.116;2024-03-22T04:20:22;10.00;99.90
33328;DHT22;19692;52.998;9.116;2024-03-22T04:22:47;10.00;99.90
33328;DHT22;19692;52.998;9.116;2024-03-22T04:25:15;10.00;99.90
33328;DHT22;19692;52.998;9.116;2024-03-22T04:27:40;10.00;99.90
33328;DHT22;19692;52.998;9.116;2024-03-22T04:30:06;10.00;99.90
33328;DHT22;19692;52.998;9.116;2024-03-22T04:32:32;10.00;99.90
33328;DHT22;19692;52.998;9.116;2024-03-22T04:34:57;10.00;99.90
33328;DHT22;19692;52.998;9.116;2024-03-22T04:37:23;9.90;99.90
33328;DHT22;19692;52.998;9.116;2024-03-22T04:39:49;10.00;99.90
33328;DHT22;19692;52.998;9.116;2024-03-22T04:42:14;10.00;99.90
33328;DHT22;19692;52.998;9.116;2024-03-22T04:44:41;10.00;99.90
33328;DHT22;19692;52.998;9.116;2024-03-22T04:47:07;10.00;99.90
33328;DHT22;19692;52.998;9.116;2024-03-22T04:49:32;10.00;99.90
33328;DHT22;19692;52.998;9.116;2024-03-22T04:51:58;10.00;99.90
33328;DHT22;19692;52.998;9.116;2024-03-22T04:54:24;10.00;99.90
33328;DHT22;19692;52.998;9.116;2024-03-22T04:56:50;9.90;99.90
33328;DHT22;19692;52.998;9.116;2024-03-22T04:59:15;10.00;99.90
33328;DHT22;19692;52.998;9.116;2024-03-22T05:01:42;10.00;99.90
33328;DHT22;19692;52.998;9.116;2024-03-22T05:04:10;10.00;99.90
33328;DHT22;19692;52.998;9.116;2024-03-22T05:06:36;10.00;99.90
33328;DHT22;19692;52.998;9.116;2024-03-22T05:09:01;10.00;99.90
33328;DHT22;19692;52.998;9.116;2024-03-22T05:11:28;10.10;99.90
33328;DHT22;19692;52.998;9.116;2024-03-22T05:13:54;10.10;99.90
33328;DHT22;19692;52.998;9.116;2024-03-22T05:16:20;10.10;99.90
33328;DHT22;19692;52.998;9.116;2024-03-22T05:18:45;10.00;99.90
33328;DHT22;19692;52.998;9.116;2024-03-22T05:21:11;10.00;99.90
33328;DHT22;19692;52.998;9.116;2024-03-22T05:23:36;10.00;99.90
33328;DHT22;19692;52.998;9.116;2024-03-22T05:26:02;10.10;99.90
33328;DHT22;19692;52.998;9.116;2024-03-22T05:28:29;10.00;99.90
33328;DHT22;19692;52.998;9.116;2024-03-22T05:30:55;10.00;99.90
33328;DHT22;19692;52.998;9.116;2024-03-22T05:33:21;10.10;99.90
33328;DHT22;19692;52.998;9.116;2024-03-22T05:35:47;10.00;99.90
33328;DHT22;19692;52.998;9.116;2024-03-22T05:38:12;10.00;99.90
33328;DHT22;19692;52.998;9.116;2024-03-22T05:40:38;10.00;99.90
33328;DHT22;19692;52.998;9.116;2024-03-22T05:43:06;10.00;99.90
33328;DHT22;19692;52.998;9.116;2024-03-22T05:45:32;10.00;99.90
33328;DHT22;19692;52.998;9.116;2024-03-22T05:47:57;10.00;99.90
33328;DHT22;19692;52.998;9.116;2024-03-22T05:50:23;10.00;99.90
33328;DHT22;19692;52.998;9.116;2024-03-22T05:52:48;10.00;99.90
33328;DHT22;19692;52.998;9.116;2024-03-22T05:55:14;10.10;99.90
33328;DHT22;19692;52.998;9.116;2024-03-22T05:57:39;10.10;99.90
33328;DHT22;19692;52.998;9.116;2024-03-22T06:00:05;10.10;99.90
33328;DHT22;19692;52.998;9.116;2024-03-22T06:02:32;10.10;99.90
33328;DHT22;19692;52.998;9.116;2024-03-22T06:04:58;10.20;99.90
33328;DHT22;19692;52.998;9.116;2024-03-22T06:07:24;10.10;99.90
33328;DHT22;19692;52.998;9.116;2024-03-22T06:09:50;10.20;99.90
33328;DHT22;19692;52.998;9.116;2024-03-22T06:12:18;10.20;99.90
33328;DHT22;19692;52.998;9.116;2024-03-22T06:14:44;10.30;99.90
33328;DHT22;19692;52.998;9.116;2024-03-22T06:17:10;10.30;99.90
33328;DHT22;19692;52.998;9.116;2024-03-22T06:19:36;10.40;99.90
33328;DHT22;19692;52.998;9.116;2024-03-22T06:22:02;10.40;99.90
33328;DHT22;19692;52.998;9.116;2024-03-22T06:24:28;10.40;99.90
33328;DHT22;19692;52.998;9.116;2024-03-22T06:26:53;10.40;99.90
33328;DHT22;19692;52.998;9.116;2024-03-22T06:29:19;10.50;99.90
33328;DHT22;19692;52.998;9.116;2024-03-22T06:31:45;10.40;99.90
33328;DHT22;19692;52.998;9.116;2024-03-22T06:34:10;10.50;99.90
33328;DHT22;19692;52.998;9.116;2024-03-22T06:36:36;10.50;99.90
33328;DHT22;19692;52.998;9.116;2024-03-22T06:39:02;10.50;99.90
33328;DHT22;19692;52.998;9.116;2024-03-22T06:41:32;10.50;99.90
33328;DHT22;19692;52.998;9.116;2024-03-22T06:43:58;10.60;99.90
33328;DHT22;19692;52.998;9.116;2024-03-22T06:46:23;10.60;99.90
33328;DHT22;19692;52.998;9.116;2024-03-22T06:48:50;10.70;99.90
33328;DHT22;19692;52.998;9.116;2024-03-22T06:51:16;10.70;99.90
33328;DHT22;19692;52.998;9.116;2024-03-22T06:53:41;10.60;99.90
33328;DHT22;19692;52.998;9.116;2024-03-22T06:56:07;10.70;99.90
33328;DHT22;19692;52.998;9.116;2024-03-22T06:58:35;10.70;99.90
33328;DHT22;19692;52.998;9.116;2024-03-22T07:01:01;10.70;99.90
33328;DHT22;19692;52.998;9.116;2024-03-22T07:03:26;10.70;99.90
33328;DHT22;19692;52.998;9.116;2024-03-22T07:05:52;10.70;99.90
33328;DHT22;19692;52.998;9.116;2024-03-22T07:08:18;10.80;99.90
33328;DHT22;19692;52.998;9.116;2024-03-22T07:10:43;10.70;99.90
33328;DHT22;19692;52.998;9.116;2024-03-22T07:13:10;10.70;99.90
33328;DHT22;19692;52.998;9.116;2024-03-22T07:15:36;10.70;99.90
33328;DHT22;19692;52.998;9.116;2024-03-22T07:18:01;10.70;99.90
33328;DHT22;19692;52.998;9.116;2024-03-22T07:20:35;10.70;99.90
33328;DHT22;19692;52.998;9.116;2024-03-22T07:23:00;10.70;99.90
33328;DHT22;19692;52.998;9.116;2024-03-22T07:31:24;10.70;99.90
33328;DHT22;19692;52.998;9.116;2024-03-22T07:33:53;10.70;99.90
33328;DHT22;19692;52.998;9.116;2024-03-22T07:36:22;10.70;99.90
33328;DHT22;19692;52.998;9.116;2024-03-22T07:38:50;10.60;99.90
33328;DHT22;19692;52.998;9.116;2024-03-22T07:41:18;10.70;99.90
33328;DHT22;19692;52.998;9.116;2024-03-22T07:43:46;10.70;99.90
33328;DHT22;19692;52.998;9.116;2024-03-22T07:46:13;10.70;99.90
33328;DHT22;19692;52.998;9.116;2024-03-22T07:48:40;10.60;99.90
33328;DHT22;19692;52.998;9.116;2024-03-22T07:51:07;10.70;99.90
33328;DHT22;19692;52.998;9.116;2024-03-22T07:53:34;10.70;99.90
33328;DHT22;19692;52.998;9.116;2024-03-22T07:56:02;10.60;99.90
33328;DHT22;19692;52.998;9.116;2024-03-22T07:58:30;10.60;99.90
33328;DHT22;19692;52.998;9.116;2024-03-22T08:00:57;10.70;99.90
33328;DHT22;19692;52.998;9.116;2024-03-22T08:03:25;10.60;99.90
33328;DHT22;19692;52.998;9.116;2024-03-22T08:05:53;10.70;99.90
33328;DHT22;19692;52.998;9.116;2024-03-22T15:47:13;9.60;99.90
33328;DHT22;19692;52.998;9.116;2024-03-22T15:49:39;9.60;99.90
33328;DHT22;19692;52.998;9.116;2024-03-22T15:52:05;9.50;99.90
33328;DHT22;19692;52.998;9.116;2024-03-22T15:54:30;9.50;99.90
33328;DHT22;19692;52.998;9.116;2024-03-22T15:56:56;9.50;99.90
33328;DHT22;19692;52.998;9.116;2024-03-22T15:59:22;9.40;99.90
33328;DHT22;19692;52.998;9.116;2024-03-22T16:01:47;9.40;99.90
33328;DHT22;19692;52.998;9.116;2024-03-22T16:04:13;9.40;99.90
33328;DHT22;19692;52.998;9.116;2024-03-22T16:06:38;9.30;99.90
33328;DHT22;19692;52.998;9.116;2024-03-22T16:09:04;9.30;99.90
33328;DHT22;19692;52.998;9.116;2024-03-22T16:11:35;9.30;99.90
33328;DHT22;19692;52.998;9.116;2024-03-22T16:14:00;9.20;99.90
33328;DHT22;19692;52.998;9.116;2024-03-22T16:16:26;9.10;99.90
33328;DHT22;19692;52.998;9.116;2024-03-22T16:18:51;9.20;99.90
33328;DHT22;19692;52.998;9.116;2024-03-22T16:21:18;9.20;99.90
33328;DHT22;19692;52.998;9.116;2024-03-22T16:23:44;9.10;99.90
33328;DHT22;19692;52.998;9.116;2024-03-22T16:26:09;9.20;99.90
33328;DHT22;19692;52.998;9.116;2024-03-22T16:28:35;9.20;99.90
33328;DHT22;19692;52.998;9.116;2024-03-22T16:31:00;9.10;99.90
33328;DHT22;19692;52.998;9.116;2024-03-22T16:33:26;9.00;99.90
33328;DHT22;19692;52.998;9.116;2024-03-22T16:35:52;9.10;99.90
33328;DHT22;19692;52.998;9.116;2024-03-22T16:38:17;9.00;99.90
33328;DHT22;19692;52.998;9.116;2024-03-22T16:40:43;9.20;99.90
33328;DHT22;19692;52.998;9.116;2024-03-22T16:43:08;9.10;99.90
33328;DHT22;19692;52.998;9.116;2024-03-22T16:45:35;9.00;99.90
33328;DHT22;19692;52.998;9.116;2024-03-22T16:48:01;8.90;99.90
33328;DHT22;19692;52.998;9.116;2024-03-22T16:51:06;9.00;99.90
33328;DHT22;19692;52.998;9.116;2024-03-22T16:53:31;8.80;99.90
33328;DHT22;19692;52.998;9.116;2024-03-22T16:55:57;8.80;99.90
33328;DHT22;19692;52.998;9.116;2024-03-22T16:58:23;8.80;99.90
33328;DHT22;19692;52.998;9.116;2024-03-22T17:00:51;8.70;99.90
33328;DHT22;19692;52.998;9.116;2024-03-22T17:03:17;8.80;99.90
33328;DHT22;19692;52.998;9.116;2024-03-22T17:05:42;8.80;99.90
33328;DHT22;19692;52.998;9.116;2024-03-22T17:08:14;8.80;99.90
33328;DHT22;19692;52.998;9.116;2024-03-22T17:10:43;8.80;99.90
33328;DHT22;19692;52.998;9.116;2024-03-22T17:13:08;8.90;99.90
33328;DHT22;19692;52.998;9.116;2024-03-22T17:15:37;8.90;99.90
33328;DHT22;19692;52.998;9.116;2024-03-22T17:18:03;8.90;99.90
33328;DHT22;19692;52.998;9.116;2024-03-22T17:20:28;8.90;99.90
33328;DHT22;19692;52.998;9.116;2024-03-22T17:22:55;8.90;99.90
33328;DHT22;19692;52.998;9.116;2024-03-22T17:25:21;9.00;99.90
33328;DHT22;19692;52.998;9.116;2024-03-22T17:27:49;9.00;99.90
33328;DHT22;19692;52.998;9.116;2024-03-22T17:30:15;8.90;99.90
33328;DHT22;19692;52.998;9.116;2024-03-22T17:32:41;8.90;99.90
33328;DHT22;19692;52.998;9.116;2024-03-22T17:35:07;8.90;99.90
33328;DHT22;19692;52.998;9.116;2024-03-22T17:37:32;9.00;99.90
33328;DHT22;19692;52.998;9.116;2024-03-22T17:39:58;9.00;99.90
33328;DHT22;19692;52.998;9.116;2024-03-22T17:42:24;8.90;99.90
33328;DHT22;19692;52.998;9.116;2024-03-22T17:44:50;9.00;99.90
33328;DHT22;19692;52.998;9.116;2024-03-22T17:47:15;8.90;99.90
33328;DHT22;19692;52.998;9.116;2024-03-22T17:49:42;8.90;99.90
33328;DHT22;19692;52.998;9.116;2024-03-22T17:52:08;9.00;99.90
33328;DHT22;19692;52.998;9.116;2024-03-22T17:54:33;9.00;99.90
33328;DHT22;19692;52.998;9.116;2024-03-22T18:35:01;8.60;99.90
33328;DHT22;19692;52.998;9.116;2024-03-22T18:37:27;8.60;99.90
33328;DHT22;19692;52.998;9.116;2024-03-22T18:39:53;8.60;99.90
33328;DHT22;19692;52.998;9.116;2024-03-22T18:42:19;8.60;99.90
33328;DHT22;19692;52.998;9.116;2024-03-22T18:44:44;8.60;99.90
33328;DHT22;19692;52.998;9.116;2024-03-22T18:47:13;8.60;99.90
33328;DHT22;19692;52.998;9.116;2024-03-22T18:49:39;8.60;99.90
33328;DHT22;19692;52.998;9.116;2024-03-22T18:52:05;8.60;99.90
33328;DHT22;19692;52.998;9.116;2024-03-22T18:54:34;8.60;99.90
33328;DHT22;19692;52.998;9.116;2024-03-22T18:57:02;8.50;99.90
33328;DHT22;19692;52.998;9.116;2024-03-22T18:59:29;8.50;99.90
33328;DHT22;19692;52.998;9.116;2024-03-22T19:01:55;8.50;99.90
33328;DHT22;19692;52.998;9.116;2024-03-22T19:04:20;8.50;99.90
33328;DHT22;19692;52.998;9.116;2024-03-22T19:06:46;8.40;99.90
33328;DHT22;19692;52.998;9.116;2024-03-22T19:09:22;8.30;99.90
33328;DHT22;19692;52.998;9.116;2024-03-22T19:11:48;8.40;99.90
33328;DHT22;19692;52.998;9.116;2024-03-22T19:14:14;8.40;99.90
33328;DHT22;19692;52.998;9.116;2024-03-22T19:16:40;8.40;99.90
33328;DHT22;19692;52.998;9.116;2024-03-22T19:19:05;8.30;99.90
33328;DHT22;19692;52.998;9.116;2024-03-22T19:21:31;8.30;99.90
33328;DHT22;19692;52.998;9.116;2024-03-22T19:23:57;8.30;99.90
33328;DHT22;19692;52.998;9.116;2024-03-22T19:26:22;8.30;99.90
33328;DHT22;19692;52.998;9.116;2024-03-22T19:28:48;8.30;99.90
33328;DHT22;19692;52.998;9.116;2024-03-22T19:31:13;8.20;99.90
33328;DHT22;19692;52.998;9.116;2024-03-22T19:33:39;8.20;99.90
33328;DHT22;19692;52.998;9.116;2024-03-22T19:36:05;8.20;99.90
33328;DHT22;19692;52.998;9.116;2024-03-22T19:38:30;8.20;99.90
33328;DHT22;19692;52.998;9.116;2024-03-22T19:41:05;8.20;99.90
33328;DHT22;19692;52.998;9.116;2024-03-22T19:43:32;8.20;99.90
33328;DHT22;19692;52.998;9.116;2024-03-22T19:46:00;8.20;99.90
33328;DHT22;19692;52.998;9.116;2024-03-22T19:48:27;8.10;99.90
33328;DHT22;19692;52.998;9.116;2024-03-22T19:50:53;8.10;99.90
33328;DHT22;19692;52.998;9.116;2024-03-22T19:53:45;8.10;99.90
33328;DHT22;19692;52.998;9.116;2024-03-22T19:56:11;8.00;99.90
33328;DHT22;19692;52.998;9.116;2024-03-22T19:58:36;8.10;99.90
33328;DHT22;19692;52.998;9.116;2024-03-22T20:01:02;8.10;99.90
33328;DHT22;19692;52.998;9.116;2024-03-22T20:03:27;8.20;99.90
33328;DHT22;19692;52.998;9.116;2024-03-22T20:05:53;8.10;99.90
33328;DHT22;19692;52.998;9.116;2024-03-22T20:08:19;8.00;99.90
33328;DHT22;19692;52.998;9.116;2024-03-22T20:10:45;8.10;99.90
33328;DHT22;19692;52.998;9.116;2024-03-22T20:13:11;8.00;99.90
33328;DHT22;19692;52.998;9.116;2024-03-22T20:15:36;8.00;99.90
33328;DHT22;19692;52.998;9.116;2024-03-22T20:18:02;7.90;99.90
33328;DHT22;19692;52.998;9.116;2024-03-22T20:20:29;8.00;99.90
33328;DHT22;19692;52.998;9.116;2024-03-22T20:22:57;8.00;99.90
33328;DHT22;19692;52.998;9.116;2024-03-22T20:25:23;8.00;99.90
33328;DHT22;19692;52.998;9.116;2024-03-22T20:27:49;8.00;99.90
33328;DHT22;19692;52.998;9.116;2024-03-22T20:30:14;7.90;99.90
33328;DHT22;19692;52.998;9.116;2024-03-22T20:32:40;7.90;99.90
33328;DHT22;19692;52.998;9.116;2024-03-22T20:35:06;7.90;99.90
33328;DHT22;19692;52.998;9.116;2024-03-22T20:37:32;7.80;99.90
